createdAt,value
2023-01-20T00:00:16.440Z,96737.78
2023-01-20T00:02:42.981Z,96747.41
2023-01-20T00:05:09.527Z,96746.69
2023-01-20T00:07:36.116Z,96750.44
2023-01-20T00:10:02.603Z,96750.41
2023-01-20T00:12:30.630Z,96751.97
2023-01-20T00:14:57.308Z,96765.50
2023-01-20T00:17:23.773Z,96764.75
2023-01-20T00:19:50.239Z,96768.41
2023-01-20T00:22:16.711Z,96773.88
2023-01-20T00:24:43.167Z,96785.41
2023-01-20T00:27:09.655Z,96783.69
2023-01-20T00:29:36.103Z,96790.22
2023-01-20T00:32:02.612Z,96804.78
2023-01-20T00:34:29.112Z,96802.50
2023-01-20T00:36:55.578Z,96809.09
2023-01-20T00:39:22.132Z,96812.09
2023-01-20T00:41:48.639Z,96813.56
2023-01-20T00:44:15.097Z,96811.22
2023-01-20T00:46:41.769Z,96820.13
2023-01-20T00:49:09.300Z,96823.84
2023-01-20T00:51:35.757Z,96829.03
2023-01-20T00:54:02.288Z,96820.09
2023-01-20T00:56:28.787Z,96824.56
2023-01-20T00:58:55.386Z,96824.56
2023-01-20T01:01:22.431Z,96827.75
2023-01-20T01:03:49.109Z,96827.09
2023-01-20T01:06:16.613Z,96832.19
2023-01-20T01:08:44.005Z,96823.41
2023-01-20T01:11:11.449Z,96820.53
2023-01-20T01:13:40.909Z,96820.53
2023-01-20T01:16:11.814Z,96828.63
2023-01-20T01:18:38.356Z,96828.38
2023-01-20T01:21:08.898Z,96822.16
2023-01-20T01:23:35.483Z,96822.91
2023-01-20T01:26:01.969Z,96831.78
2023-01-20T01:28:28.433Z,96830.63
2023-01-20T01:30:54.990Z,96828.81
2023-01-20T01:33:21.536Z,96825.13
2023-01-20T01:35:54.733Z,96831.56
2023-01-20T01:38:21.249Z,96835.16
2023-01-20T01:40:51.563Z,96833.34
2023-01-20T01:43:25.781Z,96827.97
2023-01-20T01:45:52.416Z,96830.00
2023-01-20T01:48:23.972Z,96830.00
2023-01-20T01:50:53.819Z,96823.72
2023-01-20T01:53:21.026Z,96817.19
2023-01-20T01:55:49.609Z,96813.06
2023-01-20T01:58:17.772Z,96804.69
2023-01-20T02:00:44.491Z,96811.03
2023-01-20T02:03:11.909Z,96815.69
2023-01-20T02:05:39.005Z,96814.53
2023-01-20T02:08:06.740Z,96815.25
2023-01-20T02:10:33.279Z,96821.31
2023-01-20T02:13:00.440Z,96815.81
2023-01-20T02:15:56.469Z,96814.13
2023-01-20T02:18:36.719Z,96815.47
2023-01-20T02:21:09.426Z,96811.69
2023-01-20T02:23:55.060Z,96814.66
2023-01-20T02:26:37.890Z,96817.19
2023-01-20T02:29:07.479Z,96820.13
2023-01-20T02:31:52.666Z,96821.41
2023-01-20T02:34:28.008Z,96816.44
2023-01-20T02:36:57.115Z,96811.69
2023-01-20T02:39:27.405Z,96809.56
2023-01-20T02:41:54.312Z,96802.38
2023-01-20T02:44:39.865Z,96802.47
2023-01-20T02:47:25.261Z,96798.69
2023-01-20T02:49:59.250Z,96803.94
2023-01-20T02:52:26.975Z,96798.88
2023-01-20T02:54:54.991Z,96801.94
2023-01-20T02:57:28.526Z,96800.16
2023-01-20T02:59:57.301Z,96795.19
2023-01-20T03:02:25.622Z,96803.59
2023-01-20T03:05:02.516Z,96810.91
2023-01-20T03:07:31.342Z,96804.69
2023-01-20T03:10:02.044Z,96809.88
2023-01-20T03:12:36.380Z,96819.94
2023-01-20T03:15:03.097Z,96820.34
2023-01-20T03:17:29.579Z,96819.25
2023-01-20T03:19:56.413Z,96816.31
2023-01-20T03:22:22.920Z,96812.31
2023-01-20T03:24:49.499Z,96809.78
2023-01-20T03:27:15.969Z,96814.25
2023-01-20T03:29:42.529Z,96816.63
2023-01-20T03:32:11.272Z,96816.66
2023-01-20T03:34:39.718Z,96819.53
2023-01-20T03:37:06.786Z,96814.72
2023-01-20T03:39:34.271Z,96818.19
2023-01-20T03:42:00.755Z,96823.06
2023-01-20T03:44:30.276Z,96821.38
2023-01-20T03:47:20.996Z,96826.22
2023-01-20T03:50:06.158Z,96820.59
2023-01-20T03:52:47.249Z,96823.88
2023-01-20T03:55:22.838Z,96835.00
2023-01-20T03:58:03.455Z,96829.88
2023-01-20T04:00:31.320Z,96826.56
2023-01-20T04:03:00.116Z,96826.81
2023-01-20T04:05:27.145Z,96829.97
2023-01-20T04:07:56.354Z,96823.13
2023-01-20T04:10:23.473Z,96825.41
2023-01-20T04:12:49.963Z,96824.19
2023-01-20T04:15:17.292Z,96827.97
2023-01-20T04:17:44.168Z,96826.50
2023-01-20T04:20:13.477Z,96828.00
2023-01-20T04:22:47.829Z,96840.75
2023-01-20T04:25:24.818Z,96835.88
2023-01-20T04:27:51.499Z,96839.50
2023-01-20T04:30:18.320Z,96845.53
2023-01-20T04:32:44.893Z,96854.41
2023-01-20T04:35:13.697Z,96850.81
2023-01-20T04:37:40.337Z,96862.34
2023-01-20T04:40:07.101Z,96860.63
2023-01-20T04:42:33.596Z,96861.22
2023-01-20T04:45:00.124Z,96866.91
2023-01-20T04:47:29.635Z,96869.19
2023-01-20T04:49:56.130Z,96873.81
2023-01-20T04:52:22.809Z,96867.44
2023-01-20T04:54:49.239Z,96882.44
2023-01-20T04:57:15.708Z,96876.72
2023-01-20T04:59:42.717Z,96880.41
2023-01-20T05:02:09.208Z,96888.25
2023-01-20T05:04:36.458Z,96892.69
2023-01-20T05:07:02.954Z,96896.38
2023-01-20T05:09:29.415Z,96899.22
2023-01-20T05:11:55.883Z,96905.25
2023-01-20T05:14:22.356Z,96901.16
2023-01-20T05:16:48.931Z,96907.03
2023-01-20T05:19:15.414Z,96907.84
2023-01-20T05:21:42.658Z,96909.50
2023-01-20T05:24:09.267Z,96917.59
2023-01-20T05:26:35.753Z,96908.81
2023-01-20T05:29:02.742Z,96903.63
2023-01-20T05:31:29.618Z,96909.75
2023-01-20T05:33:56.122Z,96913.44
2023-01-20T05:36:22.765Z,96908.06
2023-01-20T05:38:49.236Z,96904.09
2023-01-20T05:41:15.753Z,96895.41
2023-01-20T05:43:42.329Z,96898.03
2023-01-20T05:46:08.876Z,96892.34
2023-01-20T05:48:35.379Z,96892.75
2023-01-20T05:51:01.938Z,96886.56
2023-01-20T05:53:28.390Z,96889.84
2023-01-20T05:55:58.970Z,96891.50
2023-01-20T05:58:25.484Z,96886.47
2023-01-20T06:00:52.102Z,96882.47
2023-01-20T06:03:18.638Z,96880.47
2023-01-20T06:05:45.095Z,96884.19
2023-01-20T06:08:11.565Z,96888.19
2023-01-20T06:10:38.204Z,96887.06
2023-01-20T06:13:04.675Z,96890.09
2023-01-20T06:15:31.218Z,96881.28
2023-01-20T06:17:57.698Z,96875.94
2023-01-20T06:20:24.186Z,96860.28
2023-01-20T06:22:54.755Z,96855.44
2023-01-20T06:25:21.447Z,96856.09
2023-01-20T06:27:47.862Z,96856.28
2023-01-20T06:30:14.451Z,96866.44
2023-01-20T06:32:41.034Z,96861.56
2023-01-20T06:35:09.349Z,96857.66
2023-01-20T06:37:37.594Z,96855.69
2023-01-20T06:40:04.245Z,96844.91
2023-01-20T06:42:31.351Z,96851.16
2023-01-20T06:44:57.786Z,96843.84
2023-01-20T06:47:24.239Z,96838.53
2023-01-20T06:49:50.719Z,96838.97
2023-01-20T06:52:17.152Z,96835.72
2023-01-20T06:54:43.596Z,96845.06
2023-01-20T06:57:10.120Z,96841.09
2023-01-20T06:59:36.636Z,96836.25
2023-01-20T07:02:03.212Z,96832.81
2023-01-20T07:04:29.759Z,96833.75
2023-01-20T07:06:56.256Z,96831.97
2023-01-20T07:09:22.692Z,96820.28
2023-01-20T07:11:49.273Z,96833.28
2023-01-20T07:14:15.752Z,96842.75
2023-01-20T07:16:42.428Z,96849.06
2023-01-20T07:19:08.914Z,96850.53
2023-01-20T07:21:35.429Z,96847.59
2023-01-20T07:24:02.334Z,96854.09
2023-01-20T07:26:28.925Z,96852.88
2023-01-20T07:28:55.388Z,96853.97
2023-01-20T07:31:23.269Z,96855.41
2023-01-20T07:33:49.959Z,96859.78
2023-01-20T07:36:17.265Z,96842.13
2023-01-20T07:38:46.279Z,96855.78
2023-01-20T07:41:16.328Z,96856.00
2023-01-20T07:43:45.390Z,96856.13
2023-01-20T07:46:12.281Z,96856.53
2023-01-20T07:48:38.801Z,96847.91
2023-01-20T07:51:06.962Z,96852.59
2023-01-20T07:53:40.817Z,96846.63
2023-01-20T07:56:11.482Z,96854.44
2023-01-20T07:58:38.443Z,96857.56
2023-01-20T08:01:09.239Z,96866.41
2023-01-20T08:03:35.822Z,96863.44
2023-01-20T08:06:06.279Z,96881.75
2023-01-20T08:08:33.180Z,96884.84
2023-01-20T08:11:01.281Z,96892.19
2023-01-20T08:13:28.843Z,96888.69
2023-01-20T08:15:55.849Z,96894.34
2023-01-20T08:18:22.440Z,96902.88
2023-01-20T08:20:49.007Z,96893.19
2023-01-20T08:23:15.446Z,96880.31
2023-01-20T08:25:41.933Z,96889.50
2023-01-20T08:28:08.398Z,96893.16
2023-01-20T08:30:35.334Z,96884.72
2023-01-20T08:33:02.045Z,96895.75
2023-01-20T08:35:28.710Z,96895.06
2023-01-20T08:37:55.458Z,96898.72
2023-01-20T08:40:21.999Z,96904.50
2023-01-20T08:42:48.481Z,96905.00
2023-01-20T08:45:15.254Z,96903.53
2023-01-20T08:47:45.780Z,96917.34
2023-01-20T08:50:13.486Z,96903.06
2023-01-20T08:52:40.385Z,96913.22
2023-01-20T08:55:07.016Z,96910.28
2023-01-20T08:57:33.455Z,96910.81
2023-01-20T08:59:59.990Z,96906.69
2023-01-20T09:02:26.560Z,96909.38
2023-01-20T09:04:54.474Z,96909.09
2023-01-20T09:07:20.961Z,96909.47
2023-01-20T09:09:47.462Z,96900.66
2023-01-20T09:12:13.931Z,96899.31
2023-01-20T09:14:40.855Z,96889.78
2023-01-20T09:17:07.482Z,96899.81
2023-01-20T09:19:34.138Z,96900.78
2023-01-20T09:22:00.664Z,96898.47
2023-01-20T09:24:27.140Z,96902.69
2023-01-20T09:26:53.791Z,96902.81
2023-01-20T09:29:20.693Z,96902.06
2023-01-20T09:31:58.052Z,96900.66
2023-01-20T09:34:26.470Z,96906.63
2023-01-20T09:36:52.964Z,96902.78
2023-01-20T09:39:38.504Z,96904.97
2023-01-20T09:42:37.889Z,96906.16
2023-01-20T09:45:10.543Z,96908.97
2023-01-20T09:47:41.920Z,96904.25
2023-01-20T09:50:42.434Z,96908.75
2023-01-20T09:53:15.558Z,96905.28
2023-01-20T09:55:51.367Z,96904.72
2023-01-20T09:58:35.004Z,96909.09
2023-01-20T10:01:06.014Z,96905.09
2023-01-20T10:03:40.915Z,96905.81
2023-01-20T10:06:12.933Z,96909.44
2023-01-20T10:08:55.924Z,96900.78
2023-01-20T10:11:33.358Z,96900.59
2023-01-20T10:14:06.413Z,96896.97
2023-01-20T10:16:39.809Z,96903.22
2023-01-20T10:19:12.812Z,96895.41
2023-01-20T10:21:48.055Z,96894.78
2023-01-20T10:24:24.468Z,96892.06
2023-01-20T10:26:54.035Z,96887.81
2023-01-20T10:29:30.533Z,96883.78
2023-01-20T10:31:59.230Z,96886.66
2023-01-20T10:34:27.640Z,96888.59
2023-01-20T10:37:00.824Z,96886.22
2023-01-20T10:39:42.653Z,96881.00
2023-01-20T10:42:13.732Z,96881.22
2023-01-20T10:44:40.511Z,96883.59
2023-01-20T10:47:06.987Z,96879.31
2023-01-20T10:49:36.629Z,96883.00
2023-01-20T10:52:03.173Z,96892.28
2023-01-20T10:54:32.784Z,96888.84
2023-01-20T10:57:02.039Z,96893.91
2023-01-20T10:59:31.056Z,96891.63
2023-01-20T11:02:11.536Z,96887.69
2023-01-20T11:04:39.048Z,96892.97
2023-01-20T11:07:08.683Z,96887.81
2023-01-20T11:09:37.620Z,96889.28
2023-01-20T11:12:09.736Z,96886.22
2023-01-20T11:14:36.503Z,96886.94
2023-01-20T11:17:05.243Z,96888.63
2023-01-20T11:19:58.126Z,96891.09
2023-01-20T11:22:33.171Z,96889.81
2023-01-20T11:25:00.731Z,96885.13
2023-01-20T11:27:29.664Z,96892.97
2023-01-20T11:29:58.821Z,96896.06
2023-01-20T11:32:33.745Z,96894.44
2023-01-20T11:35:01.380Z,96893.59
2023-01-20T11:37:35.702Z,96895.81
2023-01-20T11:40:04.726Z,96882.38
2023-01-20T11:42:42.138Z,96891.19
2023-01-20T11:45:22.218Z,96887.56
2023-01-20T11:48:11.593Z,96886.69
2023-01-20T11:50:45.445Z,96879.38
2023-01-20T11:53:13.877Z,96887.25
2023-01-20T11:55:50.928Z,96880.22
2023-01-20T11:58:19.553Z,96884.16
2023-01-20T12:00:46.234Z,96882.78
2023-01-20T12:03:18.538Z,96882.69
2023-01-20T12:05:56.087Z,96888.72
2023-01-20T12:08:34.833Z,96886.81
2023-01-20T12:11:04.784Z,96896.63
2023-01-20T12:13:56.034Z,96889.94
2023-01-20T12:16:24.577Z,96890.16
2023-01-20T12:19:02.109Z,96892.00
2023-01-20T12:21:34.150Z,96890.53
2023-01-20T12:24:04.680Z,96901.78
2023-01-20T12:26:34.321Z,96897.59
2023-01-20T12:29:10.043Z,96903.47
2023-01-20T12:31:36.609Z,96894.59
2023-01-20T12:34:03.059Z,96899.66
2023-01-20T12:36:35.543Z,96901.78
2023-01-20T12:39:02.008Z,96901.75
2023-01-20T12:41:41.048Z,96898.94
2023-01-20T12:44:23.642Z,96895.19
2023-01-20T12:47:02.201Z,96900.88
2023-01-20T12:49:31.700Z,96908.59
2023-01-20T12:51:58.103Z,96901.78
2023-01-20T12:54:47.901Z,96901.09
2023-01-20T12:57:15.003Z,96911.09
2023-01-20T12:59:55.682Z,96908.88
2023-01-20T13:02:22.156Z,96911.47
2023-01-20T13:04:54.719Z,96910.19
2023-01-20T13:07:30.130Z,96907.97
2023-01-20T13:10:10.295Z,96909.88
2023-01-20T13:13:00.116Z,96916.31
2023-01-20T13:15:26.651Z,96918.41
2023-01-20T13:17:56.121Z,96929.72
2023-01-20T13:20:25.159Z,96918.81
2023-01-20T13:22:52.800Z,96925.53
2023-01-20T13:25:19.974Z,96935.53
2023-01-20T13:27:47.793Z,96938.38
2023-01-20T13:30:34.587Z,96929.81
2023-01-20T13:33:08.513Z,96933.19
2023-01-20T13:35:53.368Z,96930.56
2023-01-20T13:38:30.816Z,96942.50
2023-01-20T13:41:00.236Z,96941.72
2023-01-20T13:43:34.551Z,96940.19
2023-01-20T13:46:04.345Z,96950.38
2023-01-20T13:48:32.234Z,96938.53
2023-01-20T13:51:17.451Z,96948.41
2023-01-20T13:53:43.936Z,96947.56
2023-01-20T13:56:26.731Z,96948.16
2023-01-20T13:58:54.044Z,96941.19
2023-01-20T14:01:28.861Z,96953.50
2023-01-20T14:04:02.727Z,96956.69
2023-01-20T14:06:29.471Z,96956.19
2023-01-20T14:08:55.918Z,96954.03
2023-01-20T14:11:26.555Z,96955.16
2023-01-20T14:13:53.077Z,96961.25
2023-01-20T14:16:19.718Z,96961.09
2023-01-20T14:18:46.233Z,96972.13
2023-01-20T14:21:21.318Z,96977.06
2023-01-20T14:23:47.929Z,96971.03
2023-01-20T14:26:20.205Z,96971.34
2023-01-20T14:28:48.861Z,96974.56
2023-01-20T14:31:16.977Z,96978.88
2023-01-20T14:33:47.859Z,96970.88
2023-01-20T14:36:18.773Z,96975.47
2023-01-20T14:38:57.330Z,96986.41
2023-01-20T14:41:27.392Z,96987.50
2023-01-20T14:43:54.035Z,96988.25
2023-01-20T14:46:20.619Z,96999.97
2023-01-20T14:48:47.331Z,96988.41
2023-01-20T14:51:14.306Z,96984.72
2023-01-20T14:53:40.792Z,96994.53
2023-01-20T14:56:08.237Z,96999.31
2023-01-20T14:58:36.145Z,96997.78
2023-01-20T15:01:06.625Z,97008.41
2023-01-20T15:03:33.397Z,97004.84
2023-01-20T15:06:01.410Z,97011.97
2023-01-20T15:08:33.588Z,97012.25
2023-01-20T15:11:11.202Z,97014.44
2023-01-20T15:13:38.133Z,97020.22
2023-01-20T15:16:13.955Z,97029.69
2023-01-20T15:18:40.528Z,97026.25
2023-01-20T15:21:23.838Z,97023.19
2023-01-20T15:23:52.792Z,97023.13
2023-01-20T15:26:27.689Z,97027.72
2023-01-20T15:28:54.621Z,97033.03
2023-01-20T15:31:21.403Z,97030.38
2023-01-20T15:33:47.982Z,97039.34
2023-01-20T15:36:20.275Z,97040.56
2023-01-20T15:38:47.077Z,97045.91
2023-01-20T15:41:13.847Z,97046.75
2023-01-20T15:43:41.453Z,97033.81
2023-01-20T15:46:11.282Z,97039.84
2023-01-20T15:48:37.806Z,97042.28
2023-01-20T15:51:07.069Z,97046.38
2023-01-20T15:53:34.398Z,97042.06
2023-01-20T15:56:01.029Z,97040.84
2023-01-20T15:58:28.723Z,97048.84
2023-01-20T16:00:56.454Z,97047.13
2023-01-20T16:03:26.647Z,97052.34
2023-01-20T16:05:54.238Z,97053.66
2023-01-20T16:08:22.037Z,97050.28
2023-01-20T16:10:48.808Z,97060.38
2023-01-20T16:13:15.663Z,97058.94
2023-01-20T16:15:42.900Z,97063.22
2023-01-20T16:18:13.550Z,97060.28
2023-01-20T16:20:40.498Z,97056.31
2023-01-20T16:23:07.291Z,97065.97
2023-01-20T16:25:33.829Z,97065.47
2023-01-20T16:28:00.603Z,97071.78
2023-01-20T16:30:27.433Z,97072.25
2023-01-20T16:32:53.906Z,97074.63
2023-01-20T16:35:21.132Z,97074.91
2023-01-20T16:37:47.838Z,97083.03
2023-01-20T16:40:18.562Z,97073.66
2023-01-20T16:42:45.572Z,97077.75
2023-01-20T16:45:25.805Z,97079.66
2023-01-20T16:47:52.556Z,97077.47
2023-01-20T16:50:19.137Z,97074.91
2023-01-20T16:52:45.937Z,97082.69
2023-01-20T16:55:13.581Z,97077.84
2023-01-20T16:57:40.204Z,97086.53
2023-01-20T17:00:07.395Z,97090.66
2023-01-20T17:02:38.972Z,97090.00
2023-01-20T17:05:06.736Z,97085.16
2023-01-20T17:07:33.321Z,97087.16
2023-01-20T17:09:59.909Z,97091.72
2023-01-20T17:12:26.391Z,97098.25
2023-01-20T17:14:52.819Z,97095.16
2023-01-20T17:17:19.479Z,97095.44
2023-01-20T17:19:45.985Z,97098.88
2023-01-20T17:22:12.519Z,97090.94
2023-01-20T17:24:39.331Z,97090.00
2023-01-20T17:27:05.808Z,97080.59
2023-01-20T17:29:32.243Z,97081.81
2023-01-20T17:31:58.713Z,97085.13
2023-01-20T17:34:25.292Z,97089.91
2023-01-20T17:36:51.727Z,97085.25
2023-01-20T17:39:18.175Z,97081.31
2023-01-20T17:41:44.606Z,97078.38
2023-01-20T17:44:12.302Z,97081.75
2023-01-20T17:46:38.738Z,97081.41
2023-01-20T17:49:06.902Z,97074.25
2023-01-20T17:51:33.744Z,97079.50
2023-01-20T17:54:03.410Z,97075.16
2023-01-20T17:56:30.669Z,97084.81
2023-01-20T17:58:57.179Z,97082.06
2023-01-20T18:01:25.552Z,97084.13
2023-01-20T18:03:53.557Z,97082.47
2023-01-20T18:06:21.643Z,97082.84
2023-01-20T18:08:52.829Z,97079.97
2023-01-20T18:11:20.342Z,97081.91
2023-01-20T18:13:47.247Z,97079.41
2023-01-20T18:16:14.802Z,97076.44
2023-01-20T18:18:43.188Z,97083.50
2023-01-20T18:21:14.015Z,97077.78
2023-01-20T18:23:40.884Z,97073.50
2023-01-20T18:26:08.818Z,97076.16
2023-01-20T18:28:35.802Z,97077.34
2023-01-20T18:31:07.952Z,97077.50
2023-01-20T18:33:38.222Z,97084.06
2023-01-20T18:36:04.886Z,97080.34
2023-01-20T18:38:31.335Z,97077.31
2023-01-20T18:40:57.941Z,97077.78
2023-01-20T18:43:24.604Z,97084.75
2023-01-20T18:45:54.082Z,97080.34
2023-01-20T18:48:22.776Z,97073.50
2023-01-20T18:50:49.183Z,97085.75
2023-01-20T18:53:15.659Z,97084.44
2023-01-20T18:55:42.136Z,97078.59
2023-01-20T18:58:09.652Z,97083.31
2023-01-20T19:00:36.124Z,97087.13
2023-01-20T19:03:02.597Z,97083.84
2023-01-20T19:05:30.963Z,97082.88
2023-01-20T19:07:57.397Z,97082.25
2023-01-20T19:10:23.800Z,97087.16
2023-01-20T19:12:51.392Z,97079.19
2023-01-20T19:15:17.980Z,97085.56
2023-01-20T19:17:44.467Z,97075.88
2023-01-20T19:20:11.221Z,97072.94
2023-01-20T19:22:37.776Z,97079.50
2023-01-20T19:25:04.351Z,97088.81
2023-01-20T19:27:31.082Z,97084.00
2023-01-20T19:29:57.534Z,97088.97
2023-01-20T19:32:24.048Z,97098.50
2023-01-20T19:34:50.487Z,97090.63
2023-01-20T19:37:16.918Z,97089.25
2023-01-20T19:39:43.381Z,97095.88
2023-01-20T19:42:09.821Z,97090.72
2023-01-20T19:44:36.267Z,97086.72
2023-01-20T19:47:04.378Z,97094.81
2023-01-20T19:49:31.326Z,97096.44
2023-01-20T19:51:59.652Z,97095.13
2023-01-20T19:54:28.540Z,97098.66
2023-01-20T19:56:55.021Z,97094.03
2023-01-20T19:59:21.590Z,97089.88
2023-01-20T20:01:48.147Z,97090.31
2023-01-20T20:04:14.709Z,97099.63
2023-01-20T20:06:44.981Z,97100.94
2023-01-20T20:09:15.671Z,97097.53
2023-01-20T20:11:43.065Z,97100.47
2023-01-20T20:14:11.911Z,97105.13
2023-01-20T20:16:38.887Z,97096.88
2023-01-20T20:19:06.074Z,97102.59
2023-01-20T20:21:33.427Z,97103.53
2023-01-20T20:24:01.251Z,97104.34
2023-01-20T20:26:31.750Z,97101.03
2023-01-20T20:28:58.757Z,97100.94
2023-01-20T20:31:35.603Z,97101.59
2023-01-20T20:34:02.869Z,97098.19
2023-01-20T20:36:30.949Z,97099.31
2023-01-20T20:38:58.813Z,97098.78
2023-01-20T20:41:33.191Z,97101.38
2023-01-20T20:44:00.800Z,97102.22
2023-01-20T20:46:28.176Z,97107.97
2023-01-20T20:49:01.352Z,97105.38
2023-01-20T20:51:28.863Z,97108.63
2023-01-20T20:53:56.234Z,97108.84
2023-01-20T20:56:22.957Z,97107.47
2023-01-20T20:59:00.985Z,97099.28
2023-01-20T21:01:29.307Z,97098.16
2023-01-20T21:03:57.780Z,97104.81
2023-01-20T21:06:25.612Z,97108.78
2023-01-20T21:08:52.653Z,97107.75
2023-01-20T21:11:20.255Z,97106.09
2023-01-20T21:13:49.145Z,97108.09
2023-01-20T21:16:17.923Z,97123.34
2023-01-20T21:18:44.360Z,97124.59
2023-01-20T21:21:13.008Z,97125.28
2023-01-20T21:23:42.530Z,97121.06
2023-01-20T21:26:13.075Z,97126.38
2023-01-20T21:28:40.636Z,97121.34
2023-01-20T21:31:07.756Z,97134.41
2023-01-20T21:33:35.697Z,97130.00
2023-01-20T21:36:03.563Z,97126.88
2023-01-20T21:38:31.340Z,97139.69
2023-01-20T21:41:01.273Z,97135.88
2023-01-20T21:43:51.519Z,97143.19
2023-01-20T21:46:18.650Z,97129.97
2023-01-20T21:49:03.859Z,97138.06
2023-01-20T21:51:49.349Z,97143.91
2023-01-20T21:54:16.243Z,97134.72
2023-01-20T21:56:43.138Z,97135.81
2023-01-20T21:59:09.966Z,97140.00
2023-01-20T22:01:36.435Z,97146.47
2023-01-20T22:04:03.247Z,97149.50
2023-01-20T22:06:29.797Z,97144.63
2023-01-20T22:08:58.402Z,97158.22
2023-01-20T22:11:25.606Z,97153.78
2023-01-20T22:13:55.839Z,97161.53
2023-01-20T22:16:23.563Z,97158.88
2023-01-20T22:18:50.588Z,97158.75
2023-01-20T22:21:17.434Z,97164.41
2023-01-20T22:23:43.972Z,97171.41
2023-01-20T22:26:10.829Z,97169.47
2023-01-20T22:28:40.293Z,97176.03
2023-01-20T22:31:07.639Z,97172.34
2023-01-20T22:33:34.235Z,97177.03
2023-01-20T22:36:01.019Z,97174.44
2023-01-20T22:38:27.500Z,97168.88
2023-01-20T22:40:54.018Z,97166.19
2023-01-20T22:43:20.755Z,97168.38
2023-01-20T22:45:48.395Z,97176.69
2023-01-20T22:48:15.128Z,97164.16
2023-01-20T22:50:41.667Z,97158.34
2023-01-20T22:53:08.124Z,97159.00
2023-01-20T22:55:34.653Z,97166.78
2023-01-20T22:58:01.122Z,97151.34
2023-01-20T23:00:27.601Z,97158.59
2023-01-20T23:02:54.094Z,97156.66
2023-01-20T23:05:20.530Z,97156.81
2023-01-20T23:07:46.989Z,97148.69
2023-01-20T23:10:33.433Z,97156.16
2023-01-20T23:12:59.898Z,97159.06
2023-01-20T23:15:26.385Z,97156.19
2023-01-20T23:17:52.850Z,97151.53
2023-01-20T23:20:19.441Z,97154.19
2023-01-20T23:22:46.023Z,97153.25
2023-01-20T23:25:12.479Z,97148.94
2023-01-20T23:27:38.951Z,97158.44
2023-01-20T23:30:05.751Z,97153.84
2023-01-20T23:32:32.209Z,97147.03
2023-01-20T23:34:58.661Z,97150.53
2023-01-20T23:37:25.095Z,97148.53
2023-01-20T23:39:52.944Z,97152.44
2023-01-20T23:42:19.502Z,97157.25
2023-01-20T23:44:45.925Z,97150.75
2023-01-20T23:47:12.443Z,97148.16
2023-01-20T23:49:38.874Z,97148.38
2023-01-20T23:52:05.814Z,97143.47
2023-01-20T23:54:32.314Z,97141.47
2023-01-20T23:56:58.778Z,97144.94
2023-01-20T23:59:25.226Z,97137.97
